createdAt,value
2018-08-20T22:20:11.860Z,21.50
2018-08-20T22:22:42.954Z,21.50
2018-08-20T22:25:12.906Z,21.40
2018-08-20T22:27:46.394Z,21.40
2018-08-20T22:30:15.023Z,21.30
2018-08-20T22:32:44.490Z,21.30
2018-08-20T22:35:18.626Z,21.30
2018-08-20T22:37:49.265Z,21.20
2018-08-20T22:40:19.342Z,21.20
2018-08-20T22:42:53.972Z,21.20
2018-08-20T22:45:22.436Z,21.20
2018-08-20T22:47:52.808Z,21.10
2018-08-20T22:50:20.982Z,21.10
2018-08-20T22:52:50.904Z,21.00
2018-08-20T22:55:20.191Z,21.00
2018-08-20T22:58:00.570Z,20.90
2018-08-20T23:00:29.381Z,20.80
2018-08-20T23:02:57.804Z,20.70
2018-08-20T23:05:30.083Z,20.70
2018-08-20T23:08:05.782Z,20.60
2018-08-20T23:10:34.300Z,20.60
2018-08-20T23:13:03.034Z,20.50
2018-08-20T23:15:31.272Z,20.50
2018-08-20T23:17:59.394Z,20.40
2018-08-20T23:20:31.474Z,20.40
2018-08-20T23:22:59.895Z,20.40
2018-08-20T23:25:28.116Z,20.40
2018-08-20T23:27:56.226Z,20.40
2018-08-20T23:30:25.428Z,20.30
2018-08-20T23:32:53.554Z,20.30
2018-08-20T23:35:21.796Z,20.30
2018-08-20T23:37:49.888Z,20.30
2018-08-20T23:40:18.054Z,20.30
2018-08-20T23:42:46.620Z,20.30
2018-08-20T23:45:14.800Z,20.20
2018-08-20T23:47:42.908Z,20.20
2018-08-20T23:50:11.067Z,20.30
2018-08-20T23:52:39.804Z,20.20
2018-08-20T23:55:07.962Z,20.30
2018-08-20T23:57:36.719Z,20.30
